»·PEaware :: AAL1155 KLAX-KLAS

AAL1155 :: KLAX-KLAS

FLIGHT INFORMATION

Flight Status: Arrived
Operator:
American Airlines
More flights by this operator :: More flights under this callsign
Pilot: Marcelo T. (6927)
Aircraft: BOEING 737-800
(B738)
More flights by this aircraft type
Origin: KLAX Los Angeles Intl
United States
Destination: KLAS McCarran Intl
United States
More flights between these airports :: More routes between these airports
Route: +LOOP9 DAG KEPEC3
File this flight plan on PilotEdge
Remarks: SEL / AGEF PBN / A1B1D1O1 NAV / RNVD1E12A1 DOF / 170203 REG / N909NN SEL / AGEF RMK / TCAS EQUIPPED STAGE THREE
Altitude:
(Current/Filed)
F270
Speed:
(Current/Filed)
419kts
Departed: 03-Feb-17 04:09 PM
Arrived: 03-Feb-17 05:01 PM
Distance/Time
Traveled:
206nm/0:52
Distance/Time
To Go:
Arrived

Flight Plot

Page will automatically refresh every two minutes.


Map Options




Map Legend


Flown Route
Filed Route
Departure Airport
Arrival Airport
Navaid (VOR, NDB)
Fix

Horizontal Profiles

Position Reports

Time Latitude Longitude Heading Altitude Ground
Speed
03-Feb-17 15:23 33.941822 -118.406512 262 134ft 0kts
03-Feb-17 15:24 33.941822 -118.406512 262 134ft 0kts
03-Feb-17 15:25 33.941822 -118.406512 262 134ft 0kts
03-Feb-17 15:26 33.941822 -118.406512 262 134ft 0kts
03-Feb-17 15:27 33.941822 -118.406512 262 134ft 0kts
03-Feb-17 15:28 33.941822 -118.406512 262 134ft 0kts
03-Feb-17 15:29 33.941822 -118.406512 262 134ft 0kts
03-Feb-17 15:30 33.941822 -118.406512 262 134ft 0kts
03-Feb-17 15:31 33.941822 -118.406512 262 134ft 0kts
03-Feb-17 15:32 33.941822 -118.406512 262 134ft 0kts
03-Feb-17 15:33 33.941822 -118.406512 262 134ft 0kts
03-Feb-17 15:34 33.941822 -118.406512 262 134ft 0kts
03-Feb-17 15:35 33.941822 -118.406512 262 134ft 0kts
03-Feb-17 15:36 33.941822 -118.406512 262 134ft 0kts
03-Feb-17 15:37 33.941822 -118.406512 262 134ft 0kts
03-Feb-17 15:38 33.941822 -118.406512 262 134ft 0kts
03-Feb-17 15:39 33.941822 -118.406512 262 134ft 0kts
03-Feb-17 15:40 33.941822 -118.406512 262 134ft 0kts
03-Feb-17 15:41 33.941822 -118.406512 262 134ft 0kts
03-Feb-17 15:42 33.941822 -118.406512 262 134ft 0kts
03-Feb-17 15:43 33.941822 -118.406512 262 134ft 0kts
03-Feb-17 15:44 33.941822 -118.406512 262 134ft 0kts
03-Feb-17 15:45 33.941822 -118.406512 262 134ft 0kts
03-Feb-17 15:46 33.941822 -118.406512 262 134ft 0kts
03-Feb-17 15:47 33.941822 -118.406512 262 134ft 0kts
03-Feb-17 15:48 33.941822 -118.406512 262 134ft 0kts
03-Feb-17 15:49 33.941822 -118.406512 262 134ft 0kts
03-Feb-17 15:50 33.941822 -118.406512 262 134ft 0kts
03-Feb-17 15:51 33.941822 -118.406512 262 134ft 0kts
03-Feb-17 15:52 33.941822 -118.406512 262 134ft 0kts
03-Feb-17 15:53 33.941822 -118.406512 262 134ft 0kts
03-Feb-17 15:54 33.941872 -118.405990 292 134ft 2kts
03-Feb-17 15:55 33.941390 -118.405799 352 134ft 2kts
03-Feb-17 15:56 33.940744 -118.405707 352 134ft 2kts
03-Feb-17 15:57 33.940099 -118.405613 352 134ft 2kts
03-Feb-17 15:58 33.939458 -118.405521 358 134ft 2kts
03-Feb-17 15:59 33.938999 -118.405776 82 134ft 0kts
03-Feb-17 16:00 33.938999 -118.405779 82 134ft 0kts
03-Feb-17 16:01 33.938999 -118.405779 82 134ft 0kts
03-Feb-17 16:02 33.938999 -118.405779 82 134ft 0kts
03-Feb-17 16:03 33.938323 -118.405155 118 134ft 9kts
03-Feb-17 16:04 33.938628 -118.401488 82 134ft 16kts
03-Feb-17 16:05 33.939163 -118.396243 82 134ft 15kts
03-Feb-17 16:06 33.939777 -118.390220 82 134ft 12kts
03-Feb-17 16:07 33.939918 -118.388645 101 134ft 2kts
03-Feb-17 16:08 33.939301 -118.388220 170 134ft 3kts
03-Feb-17 16:09 33.937508 -118.402865 262 134ft 139kts
03-Feb-17 16:10 33.929936 -118.460700 251 2356ft 193kts
03-Feb-17 16:11 33.906657 -118.530817 247 4678ft 250kts
03-Feb-17 16:12 33.852295 -118.558527 142 7921ft 285kts
03-Feb-17 16:13 33.863126 -118.471493 35 10722ft 320kts
03-Feb-17 16:14 33.944290 -118.404622 47 12150ft 391kts
03-Feb-17 16:15 34.010692 -118.295533 54 14754ft 417kts
03-Feb-17 16:16 34.069318 -118.192282 53 17007ft 436kts
03-Feb-17 16:17 34.139225 -118.068496 52 19408ft 455kts
03-Feb-17 16:18 34.211369 -117.940102 52 21677ft 470kts
03-Feb-17 16:19 34.285671 -117.807204 52 23655ft 484kts
03-Feb-17 16:20 34.362435 -117.670205 52 25454ft 497kts
03-Feb-17 16:21 34.440336 -117.530586 53 27094ft 502kts
03-Feb-17 16:22 34.518083 -117.390457 53 27102ft 500kts
03-Feb-17 16:23 34.595674 -117.249993 53 27100ft 503kts
03-Feb-17 16:24 34.673496 -117.108545 53 27099ft 503kts
03-Feb-17 16:25 34.751024 -116.967066 53 27084ft 504kts
03-Feb-17 16:26 34.818404 -116.844033 54 27066ft 504kts
03-Feb-17 16:27 34.895743 -116.701673 54 27059ft 499kts
03-Feb-17 16:28 34.972833 -116.565203 45 26172ft 477kts
03-Feb-17 16:29 35.064400 -116.451203 41 24831ft 465kts
03-Feb-17 16:30 35.152667 -116.340945 41 23262ft 451kts
03-Feb-17 16:31 35.239696 -116.231636 42 21440ft 443kts
03-Feb-17 16:32 35.324541 -116.124677 42 19801ft 430kts
03-Feb-17 16:33 35.406684 -116.021370 42 18220ft 418kts
03-Feb-17 16:34 35.486395 -115.920868 43 16694ft 404kts
03-Feb-17 16:35 35.563376 -115.823129 43 15209ft 392kts
03-Feb-17 16:36 35.628432 -115.740135 43 13952ft 381kts
03-Feb-17 16:37 35.700009 -115.648752 43 13042ft 353kts
03-Feb-17 16:38 35.771555 -115.576940 10 13033ft 326kts
03-Feb-17 16:39 35.860541 -115.569316 355 13037ft 320kts
03-Feb-17 16:40 35.949868 -115.563357 7 13015ft 326kts
03-Feb-17 16:41 36.004022 -115.477435 86 12089ft 340kts
03-Feb-17 16:42 36.028790 -115.366353 85 10933ft 332kts
03-Feb-17 16:43 36.022596 -115.255941 99 10028ft 309kts
03-Feb-17 16:44 36.015436 -115.156316 98 9231ft 278kts
03-Feb-17 16:45 36.009532 -115.067506 98 8371ft 250kts
03-Feb-17 16:46 36.005204 -114.993579 98 8030ft 244kts
03-Feb-17 16:47 36.000098 -114.909354 98 8045ft 247kts
03-Feb-17 16:48 35.994858 -114.824036 97 8047ft 248kts
03-Feb-17 16:49 35.989353 -114.739315 98 8043ft 247kts
03-Feb-17 16:50 35.983688 -114.654829 98 8045ft 244kts
03-Feb-17 16:51 36.020794 -114.600955 8 8066ft 218kts
03-Feb-17 16:52 36.066020 -114.627404 280 8024ft 186kts
03-Feb-17 16:53 36.070760 -114.690931 270 8045ft 185kts
03-Feb-17 16:54 36.073436 -114.754668 265 7659ft 187kts
03-Feb-17 16:55 36.073496 -114.817593 265 6789ft 181kts
03-Feb-17 16:56 36.073587 -114.871894 266 5984ft 181kts
03-Feb-17 16:57 36.073165 -114.934097 265 5178ft 183kts
03-Feb-17 16:58 36.073162 -114.996284 266 4216ft 180kts
03-Feb-17 16:59 36.073324 -115.055015 266 3318ft 162kts
03-Feb-17 17:00 36.073548 -115.108971 267 2489ft 151kts
03-Feb-17 17:01 36.073744 -115.147692 279 2189ft 32kts
03-Feb-17 17:02 36.075598 -115.151483 332 2189ft 7kts
03-Feb-17 17:03 36.078044 -115.152190 75 2189ft 12kts
03-Feb-17 17:04 36.078551 -115.147587 94 2189ft 19kts
03-Feb-17 17:05 36.078267 -115.142456 89 2189ft 17kts
03-Feb-17 17:06 36.078274 -115.136000 88 2189ft 15kts
03-Feb-17 17:07 36.080769 -115.133788 357 2189ft 8kts
03-Feb-17 17:08 36.080828 -115.134798 244 2189ft 1kts
03-Feb-17 17:09 36.080825 -115.134807 244 2189ft 0kts

Navigation Log

Ident Type
Flight plan parsing failed, navigation log unavailable